TimePDT,TemperatureF,Dew PointF,Humidity,Sea Level PressureIn,VisibilityMPH,Wind Direction,Wind SpeedMPH,Gust SpeedMPH,PrecipitationIn,Events,Conditions,WindDirDegrees,DateUTC
12:53 AM,57.9,54.0,87,30.09,10.0,WNW,3.5,-,N/A,,Overcast,300,2013-08-19 07:53:00
1:53 AM,57.0,53.1,87,30.08,10.0,Calm,Calm,-,N/A,,Clear,0,2013-08-19 08:53:00
2:53 AM,55.9,53.1,90,30.08,10.0,WSW,4.6,-,N/A,,Partly Cloudy,250,2013-08-19 09:53:00
3:53 AM,57.0,54.0,89,30.07,10.0,WNW,3.5,-,N/A,,Overcast,290,2013-08-19 10:53:00
4:53 AM,57.9,54.0,87,30.08,10.0,Calm,Calm,-,N/A,,Overcast,0,2013-08-19 11:53:00
5:53 AM,57.9,54.0,87,30.08,10.0,SW,3.5,-,N/A,,Overcast,220,2013-08-19 12:53:00
6:53 AM,57.9,54.0,87,30.09,10.0,SW,4.6,-,N/A,,Overcast,220,2013-08-19 13:53:00
7:53 AM,61.0,54.0,78,30.09,10.0,Calm,Calm,-,N/A,,Overcast,0,2013-08-19 14:53:00
8:53 AM,63.0,54.0,72,30.10,10.0,West,3.5,-,N/A,,Overcast,280,2013-08-19 15:53:00
9:53 AM,66.0,54.0,65,30.10,10.0,North,8.1,-,N/A,,Mostly Cloudy,350,2013-08-19 16:53:00
10:53 AM,64.9,53.1,65,30.11,10.0,NNW,5.8,-,N/A,,Overcast,340,2013-08-19 17:53:00
11:53 AM,66.9,52.0,59,30.13,10.0,Variable,6.9,-,N/A,,Overcast,0,2013-08-19 18:53:00
12:53 PM,68.0,52.0,56,30.13,10.0,NW,10.4,-,N/A,,Scattered Clouds,310,2013-08-19 19:53:00
1:53 PM,66.9,55.0,66,30.14,10.0,NW,9.2,-,N/A,,Mostly Cloudy,320,2013-08-19 20:53:00
2:41 PM,63.0,55.0,75,30.14,10.0,NW,5.8,-,N/A,,Overcast,320,2013-08-19 21:41:00
2:53 PM,63.0,55.0,75,30.14,10.0,WNW,5.8,-,N/A,,Overcast,290,2013-08-19 21:53:00
3:34 PM,63.0,55.9,78,30.14,10.0,NW,10.4,-,N/A,,Overcast,310,2013-08-19 22:34:00
3:53 PM,64.0,55.9,75,30.14,10.0,WNW,6.9,-,N/A,,Overcast,290,2013-08-19 22:53:00
4:53 PM,66.9,53.1,61,30.13,10.0,NW,12.7,-,N/A,,Scattered Clouds,310,2013-08-19 23:53:00
5:53 PM,64.9,52.0,63,30.13,10.0,WNW,12.7,21.9,N/A,,Clear,290,2013-08-20 00:53:00
6:53 PM,64.0,50.0,60,30.12,10.0,West,11.5,23.0,N/A,,Clear,270,2013-08-20 01:53:00
7:53 PM,61.0,50.0,67,30.11,10.0,West,15.0,-,N/A,,Clear,280,2013-08-20 02:53:00
8:53 PM,59.0,50.0,72,30.13,10.0,West,13.8,-,N/A,,Clear,280,2013-08-20 03:53:00
9:53 PM,57.9,48.9,72,30.14,10.0,West,8.1,-,N/A,,Clear,280,2013-08-20 04:53:00
10:53 PM,59.0,48.9,69,30.14,10.0,WNW,12.7,-,N/A,,Clear,290,2013-08-20 05:53:00
11:53 PM,57.0,48.9,74,30.14,10.0,West,11.5,-,N/A,,Clear,270,2013-08-20 06:53:00